| time (UTC) | temp F | wind direction | speed knots | gust knots | rain 1hr in | rain 24hr in | rain mn in | humidity % | barometer mb |
| 20260507212246 | 75 | 317 | 0.0 | 0.0 | 0.00 | 0.00 | 0.00 | 94 | 1008.4 |
| 20260507211743 | 76 | 317 | 0.0 | 0.0 | 0.00 | 0.00 | 0.00 | 94 | 1008.2 |
| 20260507211239 | 76 | 317 | 0.0 | 0.0 | 0.00 | 0.00 | 0.00 | 93 | 1008.1 |
| 20260507210736 | 76 | 318 | 0.0 | 0.0 | 0.00 | 0.00 | 0.00 | 93 | 1007.9 |
| 20260507210233 | 77 | 318 | 0.0 | 0.0 | 0.00 | 0.00 | 0.00 | 92 | 1007.9 |
| 20260507205730 | 77 | 318 | 0.0 | 0.0 | 0.00 | 0.00 | 0.00 | 91 | 1007.7 |
| 20260507205227 | 78 | 318 | 0.0 | 0.0 | 0.00 | 0.00 | 0.00 | 89 | 1007.9 |
| 20260507204723 | 78 | 317 | 0.0 | 0.0 | 0.00 | 0.00 | 0.00 | 88 | 1007.7 |
| 20260507204221 | 78 | 323 | 0.9 | 0.9 | 0.00 | 0.00 | 0.00 | 88 | 1007.7 |
| 20260507203718 | 78 | 296 | 0.0 | 0.9 | 0.00 | 0.00 | 0.00 | 88 | 1007.7 |
| 20260507203216 | 78 | 314 | 0.0 | 0.9 | 0.00 | 0.00 | 0.00 | 88 | 1007.3 |
| 20260507202711 | 79 | 307 | 0.9 | 0.9 | 0.00 | 0.00 | 0.00 | 87 | 1007.3 |
| 20260507202208 | 79 | 328 | 0.9 | 0.9 | 0.00 | 0.00 | 0.00 | 87 | 1007.2 |
| 20260507201702 | 79 | 299 | 1.7 | 1.7 | 0.00 | 0.00 | 0.00 | 86 | 1007.0 |
| 20260507201200 | 79 | 304 | 0.9 | 0.9 | 0.00 | 0.00 | 0.00 | 86 | 1007.1 |
| 20260507200656 | 79 | 318 | 0.9 | 0.9 | 0.00 | 0.00 | 0.00 | 86 | 1007.0 |
| 20260507200152 | 80 | 288 | 0.0 | 0.0 | 0.00 | 0.00 | 0.00 | 85 | 1007.1 |
| 20260507195649 | 80 | 298 | 1.7 | 1.7 | 0.00 | 0.00 | 0.00 | 85 | 1007.3 |
| 20260507195146 | 80 | 332 | 0.9 | 0.9 | 0.00 | 0.00 | 0.00 | 84 | 1007.3 |
| 20260507194643 | 80 | 307 | 0.9 | 0.9 | 0.00 | 0.00 | 0.00 | 83 | 1007.1 |
| 20260507194138 | 80 | 307 | 0.9 | 0.9 | 0.00 | 0.00 | 0.00 | 83 | 1007.1 |
| 20260507193635 | 80 | 280 | 0.9 | 0.9 | 0.00 | 0.00 | 0.00 | 83 | 1007.1 |
| 20260507193133 | 80 | 316 | 0.9 | 0.9 | 0.00 | 0.00 | 0.00 | 83 | 1007.1 |
| 20260507192628 | 81 | 321 | 0.9 | 1.7 | 0.00 | 0.00 | 0.00 | 82 | 1007.3 |
| 20260507192126 | 82 | 272 | 0.9 | 1.7 | 0.00 | 0.00 | 0.00 | 80 | 1007.0 |
| 20260507191621 | 82 | 5 | 0.0 | 0.0 | 0.00 | 0.00 | 0.00 | 80 | 1007.2 |
| 20260507191118 | 82 | 323 | 0.9 | 0.9 | 0.00 | 0.00 | 0.00 | 79 | 1007.3 |
| 20260507190615 | 82 | 325 | 0.9 | 0.9 | 0.00 | 0.00 | 0.00 | 79 | 1007.2 |
| 20260507190114 | 82 | 316 | 1.7 | 1.7 | 0.00 | 0.00 | 0.00 | 80 | 1007.2 |
| 20260507185612 | 83 | 268 | 0.9 | 0.9 | 0.00 | 0.00 | 0.00 | 78 | 1007.5 |
| 20260507185108 | 83 | 298 | 1.7 | 1.7 | 0.00 | 0.00 | 0.00 | 78 | 1007.5 |
| 20260507184607 | 83 | 315 | 0.9 | 0.9 | 0.00 | 0.00 | 0.00 | 76 | 1007.6 |
| 20260507184104 | 83 | 339 | 0.9 | 0.9 | 0.00 | 0.00 | 0.00 | 78 | 1007.5 |
| 20260507183600 | 84 | 322 | 0.9 | 0.9 | 0.00 | 0.00 | 0.00 | 76 | 1007.5 |
| 20260507183057 | 84 | 305 | 0.9 | 0.9 | 0.00 | 0.00 | 0.00 | 74 | 1007.2 |
| 20260507182553 | 85 | 325 | 0.9 | 0.9 | 0.00 | 0.00 | 0.00 | 74 | 1007.6 |
| 20260507182049 | 85 | 313 | 1.7 | 1.7 | 0.00 | 0.00 | 0.00 | 72 | 1007.3 |
| 20260507181547 | 85 | 319 | 1.7 | 1.7 | 0.00 | 0.00 | 0.00 | 72 | 1007.6 |
| 20260507181043 | 84 | 301 | 0.9 | 1.7 | 0.00 | 0.00 | 0.00 | 74 | 1007.7 |
| 20260507180539 | 84 | 316 | 1.7 | 1.7 | 0.00 | 0.00 | 0.00 | 74 | 1007.6 |
| 20260507180036 | 83 | 338 | 0.9 | 0.9 | 0.00 | 0.00 | 0.00 | 76 | 1007.7 |
| 20260507175532 | 84 | 315 | 1.7 | 2.6 | 0.00 | 0.00 | 0.00 | 74 | 1007.9 |
| 20260507175030 | 85 | 312 | 1.7 | 1.7 | 0.00 | 0.00 | 0.00 | 73 | 1007.9 |
| 20260507174527 | 85 | 358 | 0.9 | 1.7 | 0.00 | 0.00 | 0.00 | 70 | 1007.8 |
| 20260507174025 | 85 | 127 | 0.0 | 0.9 | 0.00 | 0.00 | 0.00 | 71 | 1008.2 |
| 20260507173521 | 85 | 304 | 1.7 | 1.7 | 0.00 | 0.00 | 0.00 | 71 | 1008.1 |
| 20260507173019 | 84 | 319 | 1.7 | 2.6 | 0.00 | 0.00 | 0.00 | 73 | 1008.2 |
| 20260507172514 | 83 | 1 | 0.9 | 1.7 | 0.00 | 0.00 | 0.00 | 75 | 1008.4 |
| 20260507172011 | 84 | 314 | 1.7 | 1.7 | 0.00 | 0.00 | 0.00 | 73 | 1008.4 |
| 20260507171507 | 86 | 1 | 1.7 | 1.7 | 0.00 | 0.00 | 0.00 | 71 | 1008.5 |
| 20260507171005 | 86 | 334 | 0.9 | 1.7 | 0.00 | 0.00 | 0.00 | 69 | 1008.4 |
| 20260507170501 | 86 | 341 | 1.7 | 1.7 | 0.00 | 0.00 | 0.00 | 71 | 1008.6 |
| 20260507165957 | 85 | 305 | 1.7 | 1.7 | 0.00 | 0.00 | 0.00 | 71 | 1008.5 |
| 20260507165454 | 84 | 317 | 3.5 | 4.3 | 0.00 | 0.00 | 0.00 | 72 | 1008.4 |
| 20260507164949 | 85 | 289 | 0.9 | 1.7 | 0.00 | 0.00 | 0.00 | 70 | 1008.7 |
| 20260507164447 | 86 | 325 | 0.0 | 0.9 | 0.00 | 0.00 | 0.00 | 70 | 1008.9 |
| 20260507163943 | 85 | 325 | 1.7 | 1.7 | 0.00 | 0.00 | 0.00 | 69 | 1008.7 |
| 20260507163441 | 85 | 346 | 0.9 | 1.7 | 0.00 | 0.00 | 0.00 | 70 | 1009.0 |
| 20260507162938 | 85 | 337 | 0.9 | 1.7 | 0.00 | 0.00 | 0.00 | 70 | 1009.5 |
| 20260507162433 | 86 | 322 | 1.7 | 2.6 | 0.00 | 0.00 | 0.00 | 70 | 1009.5 |
| 20260507161931 | 84 | 331 | 1.7 | 2.6 | 0.00 | 0.00 | 0.00 | 73 | 1009.6 |
| 20260507161426 | 84 | 332 | 0.9 | 1.7 | 0.00 | 0.00 | 0.00 | 71 | 1009.9 |
| 20260507160924 | 84 | 11 | 1.7 | 1.7 | 0.00 | 0.00 | 0.00 | 73 | 1009.9 |
| 20260507160419 | 84 | 305 | 0.9 | 2.6 | 0.00 | 0.00 | 0.00 | 72 | 1010.2 |
| 20260507155915 | 84 | 322 | 1.7 | 1.7 | 0.00 | 0.00 | 0.00 | 72 | 1010.2 |
| 20260507155411 | 83 | 308 | 3.5 | 5.2 | 0.00 | 0.00 | 0.00 | 74 | 1010.3 |
| 20260507154909 | 83 | 337 | 0.0 | 0.9 | 0.00 | 0.00 | 0.00 | 74 | 1010.3 |
| 20260507154406 | 84 | 6 | 1.7 | 2.6 | 0.00 | 0.00 | 0.00 | 74 | 1010.7 |
| 20260507153903 | 84 | 57 | 1.7 | 1.7 | 0.00 | 0.00 | 0.00 | 72 | 1010.8 |
| 20260507153626 | 84 | 340 | 0.9 | 0.9 | 0.00 | 0.00 | 0.00 | 71 | 1011.1 |
| 20260507153359 | 84 | 340 | 0.9 | 0.9 | 0.00 | 0.00 | 0.00 | 71 | 1011.1 |
| 20260507153223 | 84 | 22 | 2.6 | 4.3 | 0.00 | 0.00 | 0.00 | 72 | 1010.9 |
| 20260507152855 | 84 | 22 | 2.6 | 4.3 | 0.00 | 0.00 | 0.00 | 72 | 1010.9 |
| 20260507152729 | 84 | 354 | 0.0 | 0.0 | 0.00 | 0.00 | 0.00 | 73 | 1011.2 |
| 20260507152352 | 85 | 325 | 1.7 | 1.7 | 0.00 | 0.00 | 0.00 | 72 | 1011.1 |
| 20260507151848 | 84 | 354 | 0.0 | 0.0 | 0.00 | 0.00 | 0.00 | 73 | 1011.2 |
| 20260507151344 | 83 | 281 | 0.9 | 0.9 | 0.00 | 0.00 | 0.00 | 72 | 1011.3 |
| 20260507150842 | 83 | 59 | 0.0 | 0.9 | 0.00 | 0.00 | 0.00 | 74 | 1011.7 |
| 20260507150338 | 83 | 97 | 0.9 | 0.9 | 0.00 | 0.00 | 0.00 | 73 | 1011.9 |
| 20260507145834 | 82 | 59 | 0.0 | 0.0 | 0.00 | 0.00 | 0.00 | 74 | 1011.9 |
| 20260507145331 | 84 | 303 | 2.6 | 4.3 | 0.00 | 0.00 | 0.00 | 72 | 1011.9 |
| 20260507144828 | 83 | 1 | 0.0 | 0.0 | 0.00 | 0.00 | 0.00 | 74 | 1012.1 |
| 20260507144239 | 82 | 354 | 0.0 | 0.0 | 0.00 | 0.00 | 0.00 | 74 | 1012.5 |
| 20260507143735 | 82 | 354 | 0.0 | 0.0 | 0.00 | 0.00 | 0.00 | 74 | 1012.5 |
| 20260507143232 | 82 | 354 | 0.0 | 0.0 | 0.00 | 0.00 | 0.00 | 74 | 1012.5 |
| 20260507142728 | 82 | 61 | 2.6 | 2.6 | 0.00 | 0.00 | 0.00 | 74 | 1012.7 |
| 20260507142225 | 81 | 231 | 1.7 | 2.6 | 0.00 | 0.00 | 0.00 | 75 | 1013.0 |
| 20260507141721 | 80 | 342 | 0.9 | 1.7 | 0.00 | 0.00 | 0.00 | 78 | 1013.2 |
| 20260507141219 | 80 | 21 | 0.9 | 0.9 | 0.00 | 0.00 | 0.00 | 78 | 1013.0 |
| 20260507140714 | 80 | 59 | 0.9 | 1.7 | 0.00 | 0.00 | 0.00 | 78 | 1013.2 |
| 20260507140212 | 80 | 312 | 0.9 | 0.9 | 0.00 | 0.00 | 0.00 | 78 | 1013.1 |
| 20260507135709 | 79 | 38 | 0.0 | 0.0 | 0.00 | 0.00 | 0.00 | 81 | 1013.3 |
| 20260507135206 | 78 | 26 | 0.9 | 0.9 | 0.00 | 0.00 | 0.00 | 82 | 1013.5 |
| 20260507134702 | 78 | 287 | 1.7 | 1.7 | 0.00 | 0.00 | 0.00 | 83 | 1013.4 |
| 20260507134159 | 78 | 350 | 0.9 | 1.7 | 0.00 | 0.00 | 0.00 | 83 | 1013.6 |
| 20260507133654 | 77 | 11 | 0.9 | 0.9 | 0.00 | 0.00 | 0.00 | 83 | 1013.8 |
| 20260507133152 | 77 | 351 | 0.9 | 0.9 | 0.00 | 0.00 | 0.00 | 83 | 1014.0 |
| 20260507132649 | 78 | 336 | 2.6 | 2.6 | 0.00 | 0.00 | 0.00 | 84 | 1013.9 |
| 20260507132145 | 77 | 109 | 0.9 | 0.9 | 0.00 | 0.00 | 0.00 | 84 | 1013.9 |
| 20260507131643 | 77 | 286 | 1.7 | 2.6 | 0.00 | 0.00 | 0.00 | 83 | 1014.1 |
| 20260507131140 | 77 | 310 | 0.9 | 1.7 | 0.00 | 0.00 | 0.00 | 84 | 1013.9 |
| 20260507130636 | 77 | 338 | 0.9 | 1.7 | 0.00 | 0.00 | 0.00 | 84 | 1013.9 |
| 20260507130134 | 77 | 65 | 0.0 | 0.9 | 0.00 | 0.00 | 0.00 | 83 | 1014.0 |
| 20260507125633 | 78 | 328 | 2.6 | 2.6 | 0.00 | 0.00 | 0.00 | 82 | 1013.9 |
| 20260507125130 | 78 | 47 | 0.9 | 0.9 | 0.00 | 0.00 | 0.00 | 82 | 1014.1 |
| 20260507124626 | 78 | 297 | 0.9 | 0.9 | 0.00 | 0.00 | 0.00 | 81 | 1014.4 |
| 20260507124124 | 78 | 18 | 0.9 | 1.7 | 0.00 | 0.00 | 0.00 | 83 | 1014.5 |
| 20260507123622 | 79 | 18 | 0.9 | 1.7 | 0.00 | 0.00 | 0.00 | 82 | 1014.2 |
| 20260507123119 | 78 | 14 | 0.9 | 0.9 | 0.00 | 0.00 | 0.00 | 83 | 1014.2 |
| 20260507122614 | 78 | 75 | 0.9 | 0.9 | 0.00 | 0.00 | 0.00 | 84 | 1014.1 |
| 20260507122110 | 78 | 47 | 0.9 | 0.9 | 0.00 | 0.00 | 0.00 | 84 | 1014.3 |
| 20260507121606 | 77 | 13 | 1.7 | 1.7 | 0.00 | 0.00 | 0.00 | 87 | 1014.3 |
| 20260507121102 | 76 | 44 | 0.0 | 0.9 | 0.00 | 0.00 | 0.00 | 88 | 1014.4 |
| 20260507120558 | 75 | 33 | 0.9 | 1.7 | 0.00 | 0.00 | 0.00 | 90 | 1014.3 |
| 20260507120055 | 75 | 294 | 1.7 | 2.6 | 0.00 | 0.00 | 0.00 | 90 | 1014.3 |
| 20260507115551 | 75 | 180 | 0.0 | 0.0 | 0.00 | 0.00 | 0.00 | 90 | 1014.5 |
| 20260507115047 | 75 | 338 | 0.9 | 0.9 | 0.00 | 0.00 | 0.00 | 90 | 1014.6 |
| 20260507114543 | 75 | 337 | 0.9 | 0.9 | 0.00 | 0.00 | 0.00 | 91 | 1014.3 |
| 20260507114041 | 75 | 34 | 0.9 | 1.7 | 0.00 | 0.00 | 0.00 | 92 | 1014.2 |
| 20260507113537 | 74 | 312 | 0.9 | 0.9 | 0.00 | 0.00 | 0.00 | 92 | 1014.7 |
| 20260507113035 | 75 | 15 | 0.9 | 0.9 | 0.00 | 0.00 | 0.00 | 91 | 1014.6 |
| 20260507112532 | 74 | 343 | 0.0 | 0.0 | 0.00 | 0.00 | 0.00 | 93 | 1014.6 |
| 20260507112029 | 74 | 355 | 0.9 | 0.9 | 0.00 | 0.00 | 0.00 | 93 | 1014.6 |
| 20260507111526 | 74 | 323 | 1.7 | 1.7 | 0.00 | 0.00 | 0.00 | 93 | 1014.3 |
| 20260507111023 | 74 | 78 | 0.9 | 0.9 | 0.00 | 0.00 | 0.00 | 94 | 1014.5 |
| 20260507110519 | 74 | 310 | 0.9 | 1.7 | 0.00 | 0.00 | 0.00 | 94 | 1014.4 |
| 20260507110016 | 73 | 336 | 0.0 | 0.9 | 0.00 | 0.00 | 0.00 | 96 | 1014.2 |
| 20260507105513 | 73 | 308 | 0.9 | 1.7 | 0.00 | 0.00 | 0.00 | 97 | 1014.3 |
| 20260507105009 | 73 | 18 | 0.0 | 0.0 | 0.00 | 0.00 | 0.00 | 98 | 1014.7 |
| 20260507104507 | 72 | 314 | 0.9 | 0.9 | 0.00 | 0.00 | 0.00 | 99 | 1014.2 |
| 20260507104003 | 72 | 84 | 0.0 | 0.0 | 0.00 | 0.00 | 0.00 | 99 | 1014.4 |
| 20260507103459 | 72 | 307 | 0.0 | 0.0 | 0.00 | 0.00 | 0.00 | 99 | 1014.3 |
| 20260507102955 | 72 | 313 | 0.0 | 0.9 | 0.00 | 0.00 | 0.00 | 99 | 1014.4 |
| 20260507102452 | 72 | 328 | 0.0 | 0.9 | 0.00 | 0.00 | 0.00 | 99 | 1014.4 |
| 20260507101948 | 72 | 284 | 0.9 | 0.9 | 0.00 | 0.00 | 0.00 | 99 | 1014.4 |
| 20260507101443 | 72 | 305 | 0.0 | 0.0 | 0.00 | 0.00 | 0.00 | 99 | 1014.4 |
| 20260507100940 | 72 | 322 | 0.0 | 0.0 | 0.00 | 0.00 | 0.00 | 99 | 1014.4 |
| 20260507100438 | 72 | 317 | 0.0 | 0.0 | 0.00 | 0.00 | 0.00 | 99 | 1014.2 |
| 20260507095936 | 72 | 336 | 0.0 | 0.0 | 0.00 | 0.00 | 0.00 | 99 | 1014.4 |
| 20260507095433 | 72 | 336 | 0.0 | 0.0 | 0.00 | 0.00 | 0.00 | 99 | 1014.1 |
| 20260507094930 | 72 | 336 | 0.0 | 0.0 | 0.00 | 0.00 | 0.00 | 99 | 1014.1 |
| 20260507094426 | 72 | 333 | 0.0 | 0.0 | 0.00 | 0.00 | 0.00 | 99 | 1014.0 |
| 20260507093923 | 72 | 333 | 0.0 | 0.0 | 0.00 | 0.00 | 0.00 | 99 | 1013.9 |
| 20260507093421 | 72 | 333 | 0.0 | 0.0 | 0.00 | 0.00 | 0.00 | 99 | 1014.1 |
| 20260507092919 | 72 | 332 | 0.0 | 0.0 | 0.00 | 0.00 | 0.00 | 99 | 1014.1 |
| 20260507092415 | 72 | 332 | 0.0 | 0.0 | 0.00 | 0.00 | 0.00 | 99 | 1014.0 |
| 20260507091912 | 72 | 332 | 0.0 | 0.0 | 0.00 | 0.00 | 0.00 | 99 | 1014.0 |
| 20260507091408 | 72 | 332 | 0.0 | 0.0 | 0.00 | 0.00 | 0.00 | 99 | 1014.1 |
| 20260507090904 | 72 | 333 | 0.0 | 0.0 | 0.00 | 0.00 | 0.00 | 99 | 1013.9 |
| 20260507090400 | 72 | 333 | 0.0 | 0.0 | 0.00 | 0.00 | 0.00 | 99 | 1014.3 |
| 20260507085857 | 72 | 332 | 0.0 | 0.0 | 0.00 | 0.00 | 0.00 | 99 | 1014.2 |
| 20260507085354 | 72 | 332 | 0.0 | 0.0 | 0.00 | 0.00 | 0.00 | 99 | 1014.1 |
| 20260507084852 | 72 | 333 | 0.0 | 0.0 | 0.00 | 0.00 | 0.00 | 99 | 1013.9 |
| 20260507084348 | 72 | 332 | 0.0 | 0.0 | 0.00 | 0.00 | 0.00 | 99 | 1013.9 |
| 20260507083845 | 72 | 333 | 0.0 | 0.0 | 0.00 | 0.00 | 0.00 | 99 | 1014.1 |
| 20260507083342 | 72 | 333 | 0.0 | 0.0 | 0.00 | 0.00 | 0.00 | 99 | 1014.0 |
| 20260507082838 | 72 | 333 | 0.0 | 0.0 | 0.00 | 0.00 | 0.00 | 99 | 1013.8 |
| 20260507082333 | 72 | 333 | 0.0 | 0.0 | 0.00 | 0.00 | 0.00 | 99 | 1014.0 |
| 20260507081831 | 72 | 333 | 0.0 | 0.0 | 0.00 | 0.00 | 0.00 | 99 | 1013.9 |
| 20260507081327 | 72 | 333 | 0.0 | 0.0 | 0.00 | 0.00 | 0.00 | 99 | 1013.7 |
| 20260507080824 | 72 | 333 | 0.0 | 0.0 | 0.00 | 0.00 | 0.00 | 99 | 1013.9 |
| 20260507080320 | 72 | 317 | 0.0 | 0.0 | 0.00 | 0.00 | 0.00 | 99 | 1013.9 |
| 20260507075815 | 72 | 316 | 0.0 | 0.0 | 0.00 | 0.00 | 0.00 | 99 | 1014.0 |
| 20260507075312 | 72 | 316 | 0.0 | 0.0 | 0.00 | 0.00 | 0.00 | 99 | 1014.2 |
| 20260507074808 | 72 | 316 | 0.0 | 0.0 | 0.00 | 0.00 | 0.00 | 99 | 1014.0 |
| 20260507074306 | 72 | 317 | 0.0 | 0.0 | 0.00 | 0.00 | 0.00 | 99 | 1014.0 |
| 20260507073803 | 73 | 316 | 0.0 | 0.0 | 0.00 | 0.00 | 0.00 | 99 | 1014.4 |
| 20260507073300 | 73 | 316 | 0.0 | 0.0 | 0.00 | 0.00 | 0.00 | 99 | 1014.3 |
| 20260507072757 | 73 | 324 | 0.0 | 0.0 | 0.00 | 0.00 | 0.00 | 99 | 1014.2 |
| 20260507072254 | 73 | 6 | 0.0 | 0.0 | 0.00 | 0.00 | 0.00 | 99 | 1014.3 |
| 20260507071752 | 73 | 6 | 0.0 | 0.0 | 0.00 | 0.00 | 0.00 | 99 | 1014.0 |
| 20260507071248 | 73 | 2 | 0.0 | 0.0 | 0.00 | 0.00 | 0.00 | 99 | 1014.0 |
| 20260507070745 | 73 | 6 | 0.0 | 0.0 | 0.00 | 0.00 | 0.00 | 99 | 1014.2 |
| 20260507070242 | 73 | 306 | 0.0 | 0.0 | 0.00 | 0.00 | 0.00 | 99 | 1014.0 |
| 20260507065738 | 73 | 301 | 0.9 | 0.9 | 0.00 | 0.00 | 0.00 | 99 | 1014.2 |
| 20260507065235 | 73 | 305 | 0.0 | 0.9 | 0.00 | 0.00 | 0.00 | 99 | 1014.3 |
| 20260507064733 | 73 | 320 | 0.0 | 0.0 | 0.00 | 0.00 | 0.00 | 99 | 1014.3 |
| 20260507064232 | 73 | 337 | 0.0 | 0.0 | 0.00 | 0.00 | 0.00 | 99 | 1014.3 |
| 20260507063728 | 73 | 333 | 0.0 | 0.0 | 0.00 | 0.00 | 0.00 | 99 | 1014.5 |
| 20260507063225 | 73 | 304 | 0.9 | 0.9 | 0.00 | 0.00 | 0.00 | 99 | 1014.4 |
| 20260507062722 | 73 | 4 | 0.0 | 0.0 | 0.00 | 0.00 | 0.00 | 99 | 1014.6 |
| 20260507062220 | 73 | 348 | 0.0 | 0.0 | 0.00 | 0.00 | 0.00 | 99 | 1014.6 |
| 20260507061717 | 73 | 336 | 0.0 | 0.9 | 0.00 | 0.00 | 0.00 | 99 | 1014.6 |
| 20260507061215 | 73 | 338 | 0.0 | 0.9 | 0.00 | 0.00 | 0.00 | 99 | 1014.5 |
| 20260507060713 | 73 | 321 | 0.0 | 0.0 | 0.00 | 0.00 | 0.00 | 98 | 1014.7 |
| 20260507060209 | 73 | 272 | 0.0 | 0.0 | 0.00 | 0.00 | 0.00 | 98 | 1014.6 |
| 20260507055705 | 73 | 303 | 0.0 | 0.9 | 0.00 | 0.00 | 0.00 | 98 | 1014.8 |
| 20260507055201 | 73 | 68 | 0.0 | 0.0 | 0.00 | 0.00 | 0.00 | 98 | 1015.0 |
| 20260507054657 | 73 | 120 | 0.0 | 0.0 | 0.00 | 0.00 | 0.00 | 98 | 1015.0 |
| 20260507054154 | 73 | 350 | 0.0 | 0.0 | 0.00 | 0.00 | 0.00 | 98 | 1015.1 |
| 20260507053652 | 73 | 15 | 0.0 | 0.9 | 0.00 | 0.00 | 0.00 | 98 | 1015.1 |
| 20260507053150 | 73 | 295 | 0.0 | 0.9 | 0.00 | 0.00 | 0.00 | 98 | 1015.2 |
| 20260507052648 | 73 | 312 | 0.9 | 0.9 | 0.00 | 0.00 | 0.00 | 98 | 1015.4 |
| 20260507052144 | 73 | 39 | 0.9 | 0.9 | 0.00 | 0.00 | 0.00 | 98 | 1015.2 |
| 20260507051642 | 73 | 307 | 0.0 | 0.0 | 0.00 | 0.00 | 0.00 | 98 | 1015.2 |
| 20260507051138 | 73 | 70 | 0.9 | 0.9 | 0.00 | 0.00 | 0.00 | 97 | 1015.4 |
| 20260507050635 | 73 | 46 | 0.9 | 0.9 | 0.00 | 0.00 | 0.00 | 97 | 1015.3 |
| 20260507050132 | 74 | 337 | 0.9 | 0.9 | 0.00 | 0.00 | 0.00 | 98 | 1015.6 |
| 20260507045629 | 74 | 130 | 0.0 | 0.0 | 0.00 | 0.00 | 0.00 | 98 | 1015.7 |
| 20260507045125 | 74 | 339 | 0.0 | 0.0 | 0.00 | 0.00 | 0.00 | 98 | 1015.9 |
| 20260507044622 | 74 | 305 | 0.9 | 0.9 | 0.00 | 0.00 | 0.00 | 98 | 1016.0 |
| 20260507044119 | 74 | 16 | 0.0 | 0.9 | 0.00 | 0.00 | 0.00 | 98 | 1016.0 |
| 20260507043615 | 74 | 17 | 0.0 | 0.0 | 0.00 | 0.00 | 0.00 | 98 | 1015.9 |
| 20260507043112 | 74 | 336 | 0.0 | 0.0 | 0.00 | 0.00 | 0.00 | 98 | 1016.2 |
| 20260507042608 | 74 | 20 | 0.0 | 0.0 | 0.00 | 0.00 | 0.00 | 98 | 1016.1 |
| 20260507042104 | 74 | 130 | 0.0 | 0.0 | 0.00 | 0.00 | 0.00 | 98 | 1016.2 |
| 20260507041601 | 74 | 185 | 0.0 | 0.0 | 0.00 | 0.00 | 0.00 | 98 | 1016.0 |
| 20260507041058 | 74 | 188 | 0.0 | 0.0 | 0.00 | 0.00 | 0.00 | 98 | 1016.2 |
| 20260507040554 | 74 | 89 | 0.0 | 0.9 | 0.00 | 0.00 | 0.00 | 98 | 1016.1 |
| 20260507040051 | 74 | 161 | 0.9 | 0.9 | 0.00 | 0.00 | 0.00 | 98 | 1016.1 |
| 20260507035547 | 74 | 172 | 0.0 | 0.9 | 0.00 | 0.00 | 0.00 | 98 | 1016.2 |
| 20260507035043 | 74 | 200 | 0.0 | 0.0 | 0.00 | 0.00 | 0.00 | 97 | 1016.1 |
| 20260507034540 | 74 | 177 | 0.0 | 0.9 | 0.00 | 0.00 | 0.00 | 97 | 1016.1 |
| 20260507034038 | 74 | 188 | 0.0 | 0.0 | 0.00 | 0.00 | 0.00 | 97 | 1016.0 |
| 20260507033536 | 74 | 221 | 0.0 | 0.0 | 0.00 | 0.00 | 0.00 | 97 | 1016.3 |
| 20260507033033 | 74 | 8 | 0.0 | 0.0 | 0.00 | 0.00 | 0.00 | 97 | 1016.1 |
| 20260507032530 | 74 | 129 | 0.0 | 0.0 | 0.00 | 0.00 | 0.00 | 97 | 1016.1 |
| 20260507032026 | 74 | 352 | 0.0 | 0.0 | 0.00 | 0.00 | 0.00 | 97 | 1016.1 |
| 20260507031522 | 74 | 128 | 0.0 | 0.9 | 0.00 | 0.00 | 0.00 | 97 | 1016.3 |
| 20260507031020 | 74 | 1 | 0.0 | 0.0 | 0.00 | 0.00 | 0.00 | 96 | 1016.2 |
| 20260507030516 | 74 | 338 | 1.7 | 1.7 | 0.00 | 0.00 | 0.00 | 96 | 1016.3 |
| 20260507030014 | 74 | 325 | 0.0 | 0.9 | 0.00 | 0.00 | 0.00 | 96 | 1016.5 |
| 20260507025511 | 74 | 356 | 0.0 | 0.0 | 0.00 | 0.00 | 0.00 | 96 | 1016.5 |
| 20260507025008 | 74 | 357 | 0.0 | 0.0 | 0.00 | 0.00 | 0.00 | 96 | 1016.5 |
| 20260507024506 | 74 | 357 | 0.0 | 0.0 | 0.00 | 0.00 | 0.00 | 96 | 1016.4 |
| 20260507024002 | 74 | 290 | 0.0 | 0.9 | 0.00 | 0.00 | 0.00 | 96 | 1016.5 |
| 20260507023458 | 74 | 342 | 0.9 | 0.9 | 0.00 | 0.00 | 0.00 | 96 | 1016.4 |
| 20260507022955 | 74 | 5 | 0.0 | 0.0 | 0.00 | 0.00 | 0.00 | 96 | 1016.5 |
| 20260507022453 | 74 | 277 | 0.9 | 0.9 | 0.00 | 0.00 | 0.00 | 97 | 1016.7 |
| 20260507021948 | 74 | 348 | 0.0 | 0.9 | 0.00 | 0.00 | 0.00 | 97 | 1016.7 |
| 20260507021443 | 74 | 305 | 0.0 | 0.0 | 0.00 | 0.00 | 0.00 | 98 | 1016.5 |
| 20260507020941 | 73 | 128 | 0.0 | 0.0 | 0.00 | 0.00 | 0.00 | 98 | 1016.6 |
| 20260507020438 | 73 | 258 | 0.0 | 0.0 | 0.00 | 0.00 | 0.00 | 98 | 1016.6 |
| 20260507015935 | 73 | 259 | 0.0 | 0.0 | 0.00 | 0.00 | 0.00 | 98 | 1017.1 |
| 20260507015433 | 73 | 293 | 0.0 | 0.0 | 0.00 | 0.00 | 0.00 | 98 | 1016.8 |
| 20260507014930 | 73 | 277 | 0.0 | 0.0 | 0.00 | 0.00 | 0.00 | 98 | 1017.0 |
| 20260507014426 | 73 | 202 | 0.0 | 0.0 | 0.00 | 0.00 | 0.00 | 98 | 1016.8 |
| 20260507013923 | 73 | 203 | 0.0 | 0.0 | 0.00 | 0.00 | 0.00 | 98 | 1016.6 |
| 20260507013420 | 73 | 194 | 0.9 | 0.9 | 0.00 | 0.00 | 0.00 | 98 | 1016.9 |
| 20260507012917 | 73 | 82 | 0.0 | 0.0 | 0.00 | 0.00 | 0.00 | 98 | 1016.7 |
| 20260507012414 | 73 | 118 | 0.0 | 0.0 | 0.00 | 0.00 | 0.00 | 98 | 1016.7 |
| 20260507011910 | 73 | 122 | 0.0 | 0.0 | 0.00 | 0.00 | 0.00 | 98 | 1016.7 |
| 20260507011408 | 73 | 162 | 0.0 | 0.0 | 0.00 | 0.00 | 0.00 | 98 | 1016.9 |
| 20260507010907 | 73 | 172 | 0.0 | 0.0 | 0.00 | 0.00 | 0.00 | 98 | 1016.9 |
| 20260507010403 | 73 | 178 | 0.0 | 0.0 | 0.00 | 0.00 | 0.00 | 98 | 1016.8 |
| 20260507005901 | 73 | 178 | 0.0 | 0.0 | 0.00 | 0.00 | 0.00 | 98 | 1016.9 |
| 20260507005357 | 73 | 178 | 0.0 | 0.0 | 0.00 | 0.00 | 0.00 | 98 | 1016.9 |
| 20260507004854 | 73 | 178 | 0.0 | 0.0 | 0.00 | 0.00 | 0.00 | 98 | 1016.7 |
| 20260507004351 | 73 | 177 | 0.0 | 0.0 | 0.00 | 0.00 | 0.00 | 98 | 1017.0 |
| 20260507003850 | 73 | 150 | 0.0 | 0.0 | 0.00 | 0.00 | 0.00 | 98 | 1017.1 |
| 20260507003343 | 74 | 180 | 0.0 | 0.9 | 0.00 | 0.00 | 0.00 | 98 | 1017.1 |
| 20260507002839 | 73 | 316 | 0.0 | 0.0 | 0.00 | 0.00 | 0.00 | 99 | 1017.2 |
| 20260507002335 | 73 | 265 | 0.0 | 0.0 | 0.00 | 0.00 | 0.00 | 99 | 1017.1 |
| 20260507001832 | 72 | 327 | 0.0 | 0.0 | 0.00 | 0.00 | 0.00 | 99 | 1017.1 |
| 20260507001329 | 72 | 328 | 0.0 | 0.0 | 0.00 | 0.00 | 0.00 | 99 | 1016.9 |
| 20260507000825 | 72 | 328 | 0.0 | 0.0 | 0.00 | 0.00 | 0.00 | 99 | 1017.1 |
| 20260507000321 | 72 | 328 | 0.0 | 0.0 | 0.00 | 0.00 | 0.00 | 99 | 1017.2 |
| 20260506235818 | 72 | 328 | 0.0 | 0.0 | 0.00 | 0.00 | 0.00 | 99 | 1017.1 |
| 20260506235314 | 72 | 328 | 0.0 | 0.0 | 0.00 | 0.00 | 0.00 | 99 | 1017.2 |
| 20260506234811 | 72 | 327 | 0.0 | 0.0 | 0.00 | 0.00 | 0.00 | 99 | 1017.3 |
| 20260506234308 | 72 | 328 | 0.0 | 0.0 | 0.00 | 0.00 | 0.00 | 99 | 1017.2 |
| 20260506233806 | 72 | 327 | 0.0 | 0.0 | 0.00 | 0.00 | 0.00 | 98 | 1017.1 |
| 20260506233302 | 72 | 327 | 0.0 | 0.0 | 0.00 | 0.00 | 0.00 | 98 | 1017.3 |
| 20260506232759 | 72 | 327 | 0.0 | 0.0 | 0.00 | 0.00 | 0.00 | 99 | 1017.1 |
| 20260506232254 | 72 | 327 | 0.0 | 0.0 | 0.00 | 0.00 | 0.00 | 98 | 1017.1 |
| 20260506231751 | 72 | 327 | 0.0 | 0.0 | 0.00 | 0.00 | 0.00 | 98 | 1017.0 |
| 20260506231250 | 73 | 327 | 0.0 | 0.0 | 0.00 | 0.00 | 0.00 | 98 | 1017.0 |
| 20260506230746 | 73 | 327 | 0.0 | 0.0 | 0.00 | 0.00 | 0.00 | 98 | 1017.2 |
| 20260506230243 | 73 | 327 | 0.0 | 0.0 | 0.00 | 0.00 | 0.00 | 98 | 1017.1 |
| 20260506225740 | 73 | 327 | 0.0 | 0.0 | 0.00 | 0.00 | 0.00 | 98 | 1016.9 |
| 20260506225237 | 73 | 327 | 0.0 | 0.0 | 0.00 | 0.00 | 0.00 | 97 | 1017.0 |
| 20260506224732 | 73 | 327 | 0.0 | 0.0 | 0.00 | 0.00 | 0.00 | 97 | 1017.0 |
| 20260506224230 | 73 | 327 | 0.0 | 0.0 | 0.00 | 0.00 | 0.00 | 97 | 1016.9 |
| 20260506223726 | 73 | 327 | 0.0 | 0.0 | 0.00 | 0.00 | 0.00 | 97 | 1016.7 |
| 20260506223222 | 73 | 327 | 0.0 | 0.0 | 0.00 | 0.00 | 0.00 | 97 | 1016.8 |
| 20260506222719 | 73 | 327 | 0.0 | 0.0 | 0.00 | 0.00 | 0.00 | 97 | 1016.7 |
| 20260506222215 | 73 | 327 | 0.0 | 0.0 | 0.00 | 0.00 | 0.00 | 97 | 1016.5 |
| 20260506221713 | 73 | 327 | 0.0 | 0.0 | 0.00 | 0.00 | 0.00 | 97 | 1016.6 |
| 20260506221211 | 74 | 327 | 0.0 | 0.0 | 0.00 | 0.00 | 0.00 | 97 | 1016.8 |
| 20260506220708 | 74 | 326 | 0.0 | 0.0 | 0.00 | 0.00 | 0.00 | 97 | 1016.6 |
| 20260506220202 | 74 | 326 | 0.0 | 0.0 | 0.00 | 0.00 | 0.00 | 96 | 1016.6 |
| 20260506215659 | 74 | 327 | 0.0 | 0.0 | 0.00 | 0.00 | 0.00 | 95 | 1016.6 |
| 20260506215154 | 74 | 327 | 0.0 | 0.0 | 0.00 | 0.00 | 0.00 | 95 | 1016.6 |
| 20260506214652 | 74 | 327 | 0.0 | 0.0 | 0.00 | 0.00 | 0.00 | 95 | 1016.4 |
| 20260506214149 | 75 | 327 | 0.0 | 0.0 | 0.00 | 0.00 | 0.00 | 94 | 1016.5 |
| 20260506213647 | 75 | 327 | 0.0 | 0.0 | 0.00 | 0.00 | 0.00 | 94 | 1016.4 |
| 20260506213144 | 75 | 327 | 0.0 | 0.0 | 0.00 | 0.00 | 0.00 | 94 | 1016.4 |
| 20260506212641 | 75 | 326 | 0.0 | 0.0 | 0.00 | 0.00 | 0.00 | 93 | 1016.3 |